Basking Ridge, NJ (07920)

2:55 PM EDT on March 28, 2015 (GMT -0400)
Basking Ridge | | Change Station
CLOSE
Current Station
Personal Weather Station
Location: Bernards, NJ
Elevation: 364 ft
Nearby Weather Stations

Elev 364 ft 40.70 °N, 74.56 °W | Updated 2 minutes ago

Partly Cloudy
Partly Cloudy
41.2 °F
Feels Like 35 °F
N
10.4
Wind Variable Wind from NW

Today
High -- | Low -- °F
--% Chance of Precip.
Yesterday
High -- | Low -- °F
Precip. -- in
6:48 AM 7:18 PM
Waxing Gibbous, 64% visible
Pressure 29.85 in
Visibility 10.0 miles
Clouds Clear
Windchill 35 °F
Dew Point 19 °F
Humidity 41%
Rainfall 0.00 in
Snow Depth Not available.
UV 8 out of 12
Pollen 8.00 out of 12
Air Quality Not available.
Flu Activity Not available.
METAR KSMQ 281753Z AUTO 32012G21KT 290V360 10SM CLR 04/M10 A2984 RMK AO2 SLP107 T00391100 10044 20000 54000 TSNO

More Conditions Fewer Conditions

Pressure 29.85 in
Visibility 10.0 miles
Clouds Clear
Windchill 35 °F
Dew Point 19 °F
Humidity 41%
Rainfall 0.00 in
Snow Depth Not available.
UV 8 out of 12
Pollen 8.00 out of 12
Air Quality Not available.
Flu Activity Not available.
METAR KSMQ 281753Z AUTO 32012G21KT 290V360 10SM CLR 04/M10 A2984 RMK AO2 SLP107 T00391100 10044 20000 54000 TSNO

More Conditions Fewer Conditions

10-Day Weather Forecast

Almanac

Astronomy

Mar. 28, 2015 Rise Set
Actual Time
Civil Twilight
Nautical Twilight
Astronomical Twilight
Moon
Length of Visible Light
Length of Day
Tomorrow will be .
, % of the Moon is Illuminated

Today's Extremes

State Highs State Lows

Community

WunderPhotos

Upload Photos

1,809,055 photos uploaded!

WunderBlogs® & News

Nearby

Air Quality

  Air Quality AQ Index Pollutant
Not available.

Snow Depth

Station Depth Elevation

Earthquake Activity

City Distance Mag. Time & Date
Minimum magnitude displayed is 2.5.

Coastal Water Temperatures

Place Temperature

Stations

Nearby Weather Stations

Station Location Temp. Windchill Dew Point Humidity Wind Precip. Elev Updated Type